Shinsei — JD3674 — position and weather

sailwx.info

Track history (hours):
 
Tides and Currents Weather Stations Pressure Air Temp Water Temp Dewpoint Dewpoint Depression Visibility Wind Speed Wind Dir Waves Ship Positions

Shinsei

Last reported at 2017-Oct-19 21:31 UTC. Time now 2017-Oct-19 23:30 UTC.
Position N 34°36' E 134°54'.

Length 74 m; draft 3.4 m.

Type: Cargo ship. MMSI: 431005241.

Date/timePositionNaut miles runAvg speedWind from/ knotsBaromVisibWave heightAir tempDewpointWater temp
2017-Oct-19 21:31N 34°36' E 134°54'114.8
2017-Oct-19 21:27N 34°36' E 134°55'613.1
2017-Oct-19 21:00N 34°37' E 135°02'713.0
2017-Oct-19 20:30N 34°36' E 135°10'612.9
2017-Oct-19 20:00N 34°36' E 135°18'612.2
2017-Oct-19 19:30N 34°36' E 135°26'2 3.9
2017-Oct-19 19:00N 34°34' E 135°27'0 0.0
2017-Oct-19 10:59N 34°34' E 135°27'3 6.5
2017-Oct-19 10:30N 34°36' E 135°24'4 8.8
2017-Oct-19 10:00N 34°36' E 135°19'510.8
2017-Oct-19 09:30N 34°35' E 135°12'611.4
2017-Oct-19 09:00N 34°35' E 135°05'  
Track history (hours):
 
Tides and Currents Weather Stations Pressure Air Temp Water Temp Dewpoint Dewpoint Depression Visibility Wind Speed Wind Dir Waves Ship Positions

Shinsei

Last reported at 2017-Oct-19 21:31 UTC. Time now 2017-Oct-19 23:30 UTC.
Position N 34°36' E 134°54'.

Length 74 m; draft 3.4 m.

Type: Cargo ship. MMSI: 431005241.

Date/timePositionNaut miles runAvg speedWind from/ knotsBaromVisibWave heightAir tempDewpointWater temp
2017-Oct-19 21:31N 34°36' E 134°54'114.8
2017-Oct-19 21:27N 34°36' E 134°55'613.1
2017-Oct-19 21:00N 34°37' E 135°02'713.0
2017-Oct-19 20:30N 34°36' E 135°10'612.9
2017-Oct-19 20:00N 34°36' E 135°18'612.2
2017-Oct-19 19:30N 34°36' E 135°26'2 3.9
2017-Oct-19 19:00N 34°34' E 135°27'0 0.0
2017-Oct-19 10:59N 34°34' E 135°27'3 6.5
2017-Oct-19 10:30N 34°36' E 135°24'4 8.8
2017-Oct-19 10:00N 34°36' E 135°19'510.8
2017-Oct-19 09:30N 34°35' E 135°12'611.4
2017-Oct-19 09:00N 34°35' E 135°05'  

Dump ship's entire track history